地図

経路データ

SID SEASON NUMBER BASIN SUBBASIN NAME ISO_TIME NATURE LAT LON WMO_WIND WMO_PRES WMO_AGENCY TRACK_TYPE DIST2LAND LANDFALL IFLAG USA_AGENCY USA_ATCF_ID USA_LAT USA_LON USA_RECORD USA_STATUS USA_WIND USA_PRES USA_SSHS USA_R34_NE USA_R34_SE USA_R34_SW USA_R34_NW USA_R50_NE USA_R50_SE USA_R50_SW USA_R50_NW USA_R64_NE USA_R64_SE USA_R64_SW USA_R64_NW USA_POCI USA_ROCI USA_RMW USA_EYE TOKYO_LAT TOKYO_LON TOKYO_GRADE TOKYO_WIND TOKYO_PRES TOKYO_R50_DIR TOKYO_R50_LONG TOKYO_R50_SHORT TOKYO_R30_DIR TOKYO_R30_LONG TOKYO_R30_SHORT TOKYO_LAND CMA_LAT CMA_LON CMA_CAT CMA_WIND CMA_PRES HKO_LAT HKO_LON HKO_CAT HKO_WIND HKO_PRES NEWDELHI_LAT NEWDELHI_LON NEWDELHI_GRADE NEWDELHI_WIND NEWDELHI_PRES NEWDELHI_CI NEWDELHI_DP NEWDELHI_POCI REUNION_LAT REUNION_LON REUNION_TYPE REUNION_WIND REUNION_PRES REUNION_TNUM REUNION_CI REUNION_RMW REUNION_R34_NE REUNION_R34_SE REUNION_R34_SW REUNION_R34_NW REUNION_R50_NE REUNION_R50_SE REUNION_R50_SW REUNION_R50_NW REUNION_R64_NE REUNION_R64_SE REUNION_R64_SW REUNION_R64_NW BOM_LAT BOM_LON BOM_TYPE BOM_WIND BOM_PRES BOM_TNUM BOM_CI BOM_RMW BOM_R34_NE BOM_R34_SE BOM_R34_SW BOM_R34_NW BOM_R50_NE BOM_R50_SE BOM_R50_SW BOM_R50_NW BOM_R64_NE BOM_R64_SE BOM_R64_SW BOM_R64_NW BOM_ROCI BOM_POCI BOM_EYE BOM_POS_METHOD BOM_PRES_METHOD NADI_LAT NADI_LON NADI_CAT NADI_WIND NADI_PRES WELLINGTON_LAT WELLINGTON_LON WELLINGTON_WIND WELLINGTON_PRES DS824_LAT DS824_LON DS824_STAGE DS824_WIND DS824_PRES TD9636_LAT TD9636_LON TD9636_STAGE TD9636_WIND TD9636_PRES TD9635_LAT TD9635_LON TD9635_WIND TD9635_PRES TD9635_ROCI NEUMANN_LAT NEUMANN_LON NEUMANN_CLASS NEUMANN_WIND NEUMANN_PRES MLC_LAT MLC_LON MLC_CLASS MLC_WIND MLC_PRES USA_GUST BOM_GUST BOM_GUST_PER REUNION_GUST REUNION_GUST_PER USA_SEAHGT USA_SEARAD_NE USA_SEARAD_SE USA_SEARAD_SW USA_SEARAD_NW STORM_SPEED STORM_DIR
1943075S15183 1943 24 SP MM NOT_NAMED 1943-03-16 00:00:00 NR -15.2000 182.700 main 320 278 __________O___ -1 -15.2000 -177.300 2 9 225
1943075S15183 1943 24 SP MM NOT_NAMED 1943-03-16 03:00:00 NR -15.5036 182.382 main 278 239 __________P___ -1 -15.5036 -177.618 2 8 225
1943075S15183 1943 24 SP MM NOT_NAMED 1943-03-16 06:00:00 NR -15.7956 182.081 main 239 203 __________P___ -1 -15.7956 -177.919 2 8 224
1943075S15183 1943 24 SP MM NOT_NAMED 1943-03-16 09:00:00 NR -16.0647 181.815 main 203 181 __________P___ -1 -16.0647 -178.185 2 7 223
1943075S15183 1943 24 SP MM NOT_NAMED 1943-03-16 12:00:00 NR -16.3000 181.600 main 181 172 __________O___ -1 -16.3000 -178.400 2 6 219
1943075S15183 1943 24 SP MM NOT_NAMED 1943-03-16 15:00:00 NR -16.4969 181.447 main 163 149 __________P___ -1 -16.4969 -178.553 2 5 214
1943075S15183 1943 24 SP MM NOT_NAMED 1943-03-16 18:00:00 NR -16.6771 181.334 main 149 138 __________P___ -1 -16.6771 -178.666 2 4 209
1943075S15183 1943 24 SP MM NOT_NAMED 1943-03-16 21:00:00 NR -16.8688 181.229 main 138 129 __________P___ -1 -16.8688 -178.771 2 5 208
1943075S15183 1943 24 SP MM NOT_NAMED 1943-03-17 00:00:00 NR -17.1000 181.100 main 132 125 __________O___ -1 -17.1000 -178.900 2 6 210
1943075S15183 1943 24 SP MM NOT_NAMED 1943-03-17 03:00:00 NR -17.4069 180.904 main 125 123 __________P___ -1 -17.4069 -179.096 2 8 211
1943075S15183 1943 24 SP MM NOT_NAMED 1943-03-17 06:00:00 NR -17.7551 180.680 main 140 134 __________P___ -1 -17.7551 -179.320 2 8 212
1943075S15183 1943 24 SP MM NOT_NAMED 1943-03-17 09:00:00 NR -18.1257 180.441 main 154 154 __________P___ -1 -18.1257 -179.559 2 9 211
1943075S15183 1943 24 SP MM NOT_NAMED 1943-03-17 12:00:00 NR -18.5000 180.200 main 164 152 __________O___ -1 -18.5000 -179.800 2 8 215
1943075S15183 1943 24 SP MM NOT_NAMED 1943-03-17 15:00:00 NR -18.7688 179.974 main 157 146 __________P___ -1 -18.7688 179.974 2 7 218
1943075S15183 1943 24 SP MM NOT_NAMED 1943-03-17 18:00:00 NR -19.0501 179.748 main 153 153 __________P___ -1 -19.0501 179.748 2 8 214
1943075S15183 1943 24 SP MM NOT_NAMED 1943-03-17 21:00:00 NR -19.4063 179.524 main 168 168 __________P___ -1 -19.4063 179.524 2 10 206
1943075S15183 1943 24 SP MM NOT_NAMED 1943-03-18 00:00:00 NR -19.9000 179.300 main 211 211 __________O___ -1 -19.9000 179.300 2 13 203
1943075S15183 1943 24 SP MM NOT_NAMED 1943-03-18 03:00:00 NR -20.6267 178.978 main 270 270 __________P___ -1 -20.6267 178.978 2 17 200
1943075S15183 1943 24 SP MM NOT_NAMED 1943-03-18 06:00:00 NR -21.4877 178.670 main 361 361 __________P___ -1 -21.4877 178.670 2 19 195
1943075S15183 1943 24 SP MM NOT_NAMED 1943-03-18 09:00:00 NR -22.4046 178.451 main 459 459 __________P___ -1 -22.4046 178.451 2 18 188
1943075S15183 1943 24 SP MM NOT_NAMED 1943-03-18 12:00:00 NR -23.3000 178.400 main 559 559 __________O___ -1 -23.3000 178.400 2 17 176
1943075S15183 1943 24 SP MM NOT_NAMED 1943-03-18 15:00:00 NR -24.0883 178.561 main 649 649 __________P___ -1 -24.0883 178.561 2 16 163
1943075S15183 1943 24 SP MM NOT_NAMED 1943-03-18 18:00:00 NR -24.8384 178.905 main 730 730 __________P___ -1 -24.8384 178.905 2 16 152
1943075S15183 1943 24 SP MM NOT_NAMED 1943-03-18 21:00:00 NR -25.5443 179.397 main 814 814 __________P___ -1 -25.5443 179.397 2 17 144
1943075S15183 1943 24 SP MM NOT_NAMED 1943-03-19 00:00:00 NR -26.2000 180.000 main 902 902 __________O___ -1 -26.2000 180.000 2 17 139
1943075S15183 1943 24 SP MM NOT_NAMED 1943-03-19 03:00:00 NR -26.8246 180.625 main 981 981 __________P___ -1 -26.8246 -179.375 2 17 135
1943075S15183 1943 24 SP MM NOT_NAMED 1943-03-19 06:00:00 NR -27.3970 181.351 main 1068 1068 __________P___ -1 -27.3970 -178.649 2 17 129
1943075S15183 1943 24 SP MM NOT_NAMED 1943-03-19 09:00:00 NR -27.9209 182.151 main 1112 1103 __________P___ -1 -27.9209 -177.849 2 18 125
1943075S15183 1943 24 SP MM NOT_NAMED 1943-03-19 12:00:00 NR -28.4000 183.000 main 1114 1098 __________O___ -1 -28.4000 -177.000 2 18 121
1943075S15183 1943 24 SP MM NOT_NAMED 1943-03-19 15:00:00 NR -28.8394 183.876 main 1107 1095 __________P___ -1 -28.8394 -176.124 2 18 119
1943075S15183 1943 24 SP MM NOT_NAMED 1943-03-19 18:00:00 NR -29.2470 184.771 main 1107 1097 __________P___ -1 -29.2470 -175.229 2 18 117
1943075S15183 1943 24 SP MM NOT_NAMED 1943-03-19 21:00:00 NR -29.6310 185.680 main 1115 1106 __________P___ -1 -29.6310 -174.320 2 18 115
1943075S15183 1943 24 SP MM NOT_NAMED 1943-03-20 00:00:00 NR -30.0000 186.600 main 1130 __________O___ -1 -30.0000 -173.400 2 18 115

デジタル台風データ・検索

IBTrACS Databaseについて

本データベースは、米国NOAAが公開する1842年以降の世界の熱帯低気圧のベストトラックデータアーカイブInternational Best Track Archive for Climate Stewardship (IBTrACS)を、ウェブで閲覧しやすい形式に変換したものです。

最終更新日:2021-10-19